Terminal Aerodrome Forecast
Issued by NWS Charleston, WV

Current Version | Previous Version | Text Only | Print | Product List | Glossary Off
Versions: 1 2 3 4 5 6 7 8 9 10 11 12 13 14 15 16 17 18 19 20 21 22 23 24 25 26 27 28 29

000
FTUS41 KRLX 181700
TAFEKN
TAF
KEKN 181737Z 1818/1918 29009G19KT P6SM BKN015 OVC025
     FM181900 29009G19KT P6SM BKN025 OVC035
     FM190000 28007KT 5SM -RA BR BKN015 OVC025
     FM190500 30009KT P6SM OVC010
     FM191300 30009KT P6SM BKN015
     FM191500 29009KT P6SM BKN025
     FM191600 29009KT P6SM SCT035=

USA.gov is the U.S. government's official web portal to all federal, state and local government web resources and services.